createdAt,value
2022-10-01T03:16:06.873Z,9.20
2022-10-01T03:18:35.447Z,9.20
2022-10-01T03:21:10.005Z,9.20
2022-10-01T03:23:48.600Z,9.10
2022-10-01T03:26:24.021Z,9.10
2022-10-01T03:28:58.045Z,9.10
2022-10-01T03:31:30.810Z,9.00
2022-10-01T03:34:09.484Z,9.00
2022-10-01T03:36:44.571Z,9.10
2022-10-01T03:39:26.658Z,9.10
2022-10-01T03:41:59.235Z,8.90
2022-10-01T03:44:38.993Z,8.80
2022-10-01T03:47:12.532Z,8.90
2022-10-01T03:49:42.839Z,8.90
2022-10-01T03:52:27.168Z,8.80
2022-10-01T03:54:58.236Z,8.70
2022-10-01T03:57:29.121Z,8.50
2022-10-01T04:00:38.692Z,8.70
2022-10-01T04:03:15.160Z,8.70
2022-10-01T04:05:58.693Z,8.70
2022-10-01T04:08:43.648Z,8.60
2022-10-01T04:11:22.371Z,8.50
2022-10-01T04:13:57.387Z,8.50
2022-10-01T04:16:28.578Z,8.40
2022-10-01T04:19:04.409Z,8.30
2022-10-01T04:21:44.351Z,8.20
2022-10-01T04:24:12.967Z,8.10
2022-10-01T04:26:50.671Z,8.00
2022-10-01T04:29:23.559Z,8.00
2022-10-01T04:32:03.734Z,7.90
2022-10-01T04:34:55.584Z,7.80
2022-10-01T04:37:27.835Z,7.80
2022-10-01T04:40:00.889Z,7.60
2022-10-01T04:42:32.798Z,7.50
2022-10-01T04:45:02.236Z,7.50
2022-10-01T04:47:36.834Z,7.40
2022-10-01T04:50:12.379Z,7.40
2022-10-01T04:52:42.783Z,7.40
2022-10-01T04:55:20.662Z,7.40
2022-10-01T04:57:58.175Z,7.30
2022-10-01T05:00:30.534Z,7.30
2022-10-01T05:03:09.397Z,7.30
2022-10-01T05:05:45.152Z,7.30
2022-10-01T05:08:13.818Z,7.40
2022-10-01T05:10:44.509Z,7.20
2022-10-01T05:13:16.689Z,7.20
2022-10-01T05:15:46.932Z,7.20
2022-10-01T05:18:26.582Z,7.10
2022-10-01T05:21:07.381Z,7.20
2022-10-01T05:23:37.659Z,7.00
2022-10-01T05:26:07.936Z,7.10
2022-10-01T05:28:44.324Z,7.00
2022-10-01T05:31:14.903Z,7.10
2022-10-01T05:33:45.744Z,7.10
2022-10-01T05:36:26.918Z,7.10
2022-10-01T05:38:58.020Z,7.10
2022-10-01T05:41:32.739Z,7.00
2022-10-01T05:44:05.395Z,7.00
2022-10-01T05:46:41.807Z,7.00
2022-10-01T05:49:12.926Z,7.20
2022-10-01T05:51:58.941Z,7.10
2022-10-01T05:54:35.915Z,7.10
2022-10-01T05:57:16.003Z,7.10
2022-10-01T06:00:02.335Z,7.10
2022-10-01T06:02:53.494Z,7.00
2022-10-01T06:05:28.782Z,7.20
2022-10-01T06:08:05.602Z,7.10
2022-10-01T06:10:47.456Z,7.20
2022-10-01T06:13:30.135Z,7.40
2022-10-01T06:16:02.415Z,7.50
2022-10-01T06:18:44.542Z,7.50
2022-10-01T06:21:12.900Z,7.70
2022-10-01T06:23:44.591Z,7.90
2022-10-01T06:26:15.312Z,8.10
2022-10-01T06:28:47.086Z,8.40
2022-10-01T06:31:15.705Z,8.40
2022-10-01T06:33:44.081Z,8.40
2022-10-01T06:36:12.572Z,8.70
2022-10-01T06:38:43.268Z,8.60
2022-10-01T06:41:12.406Z,8.70
2022-10-01T06:43:47.062Z,8.90
2022-10-01T06:46:17.981Z,9.50
2022-10-01T06:48:50.037Z,9.80
2022-10-01T06:51:40.296Z,9.80
2022-10-01T06:54:12.684Z,9.80
2022-10-01T06:56:42.762Z,9.40
2022-10-01T06:59:15.444Z,9.40
2022-10-01T07:01:56.028Z,9.10
2022-10-01T07:04:24.759Z,9.20
2022-10-01T07:06:53.330Z,9.30
2022-10-01T07:09:26.666Z,9.20
2022-10-01T07:11:55.188Z,9.50
2022-10-01T07:14:23.607Z,9.60
2022-10-01T07:16:55.746Z,9.90
2022-10-01T07:19:45.683Z,10.70
2022-10-01T07:22:14.460Z,10.90
2022-10-01T07:24:47.437Z,11.50
2022-10-01T07:27:16.356Z,12.20
2022-10-01T07:29:45.853Z,12.60
2022-10-01T07:32:21.871Z,12.90
2022-10-01T07:34:53.547Z,12.90
2022-10-01T07:37:38.074Z,12.50
2022-10-01T07:40:24.153Z,12.20
2022-10-01T07:42:56.725Z,12.00
2022-10-01T07:45:28.223Z,12.00
2022-10-01T07:47:57.528Z,11.80
2022-10-01T07:50:26.541Z,11.70
2022-10-01T07:53:00.646Z,11.60
2022-10-01T07:55:34.867Z,11.60
2022-10-01T07:58:03.905Z,11.40
2022-10-01T08:00:36.576Z,11.50
2022-10-01T08:03:05.588Z,11.60
2022-10-01T08:05:37.605Z,11.60
2022-10-01T08:08:08.795Z,11.70
2022-10-01T08:10:43.422Z,11.90
2022-10-01T08:13:16.242Z,12.20
2022-10-01T08:15:46.188Z,12.20
2022-10-01T08:18:15.166Z,12.30
2022-10-01T08:20:43.487Z,12.20
2022-10-01T08:23:14.290Z,12.30
2022-10-01T08:25:45.362Z,12.20
2022-10-01T08:28:13.931Z,12.10
2022-10-01T08:30:43.519Z,12.30
2022-10-01T08:33:13.592Z,12.40
2022-10-01T08:35:43.681Z,12.40
2022-10-01T08:38:13.266Z,12.50
2022-10-01T08:40:47.280Z,12.30
2022-10-01T08:43:29.931Z,12.40
2022-10-01T08:46:04.133Z,12.20
2022-10-01T08:48:41.395Z,12.00
2022-10-01T08:51:14.408Z,12.10
2022-10-01T08:53:46.477Z,12.00
2022-10-01T08:56:22.787Z,12.00
2022-10-01T08:58:57.831Z,12.20
2022-10-01T09:01:26.640Z,12.40
2022-10-01T09:03:55.324Z,12.50
2022-10-01T09:06:26.374Z,12.70
2022-10-01T09:09:23.884Z,12.80
2022-10-01T09:12:06.107Z,12.70
2022-10-01T09:14:56.753Z,12.60
2022-10-01T09:17:43.242Z,12.50
2022-10-01T09:20:23.890Z,13.00
2022-10-01T09:23:04.218Z,13.00
2022-10-01T09:25:35.430Z,13.20
2022-10-01T09:28:15.292Z,13.10
2022-10-01T09:30:48.764Z,13.30
2022-10-01T09:33:20.237Z,13.20
2022-10-01T09:35:52.843Z,13.10
2022-10-01T09:38:25.744Z,13.30
2022-10-01T09:40:55.913Z,13.40
2022-10-01T09:43:29.781Z,13.50
2022-10-01T09:46:00.787Z,13.40
2022-10-01T09:48:33.928Z,13.40
2022-10-01T09:51:10.294Z,13.50
2022-10-01T09:53:42.432Z,13.60
2022-10-01T09:56:17.492Z,13.60
2022-10-01T09:58:52.966Z,13.70
2022-10-01T10:01:27.868Z,13.70
2022-10-01T10:03:58.578Z,13.60
2022-10-01T10:06:32.092Z,13.60
2022-10-01T10:09:02.630Z,13.70
2022-10-01T10:11:32.744Z,13.70
2022-10-01T10:14:03.689Z,13.70
2022-10-01T10:16:35.570Z,13.60
2022-10-01T10:19:09.716Z,13.70
2022-10-01T10:21:38.610Z,13.60
2022-10-01T10:24:20.874Z,13.50
2022-10-01T10:26:54.818Z,13.40
2022-10-01T10:29:30.526Z,13.30
2022-10-01T10:31:59.883Z,13.30
2022-10-01T10:34:33.738Z,13.30
2022-10-01T10:37:06.167Z,13.40
2022-10-01T10:39:36.610Z,13.30
2022-10-01T10:42:06.209Z,13.20
2022-10-01T10:44:39.907Z,13.20
2022-10-01T10:47:11.809Z,13.30
2022-10-01T10:49:44.889Z,13.30
2022-10-01T10:52:29.932Z,13.30
2022-10-01T10:54:59.651Z,13.30
2022-10-01T10:57:30.311Z,13.20
2022-10-01T11:00:01.420Z,13.40
2022-10-01T11:02:31.523Z,13.20
2022-10-01T11:05:03.645Z,13.20
2022-10-01T11:07:33.426Z,13.10
2022-10-01T11:10:22.922Z,13.00
2022-10-01T11:13:07.516Z,13.00
2022-10-01T11:15:54.142Z,13.10
2022-10-01T11:18:48.468Z,13.30
2022-10-01T11:21:33.837Z,13.30
2022-10-01T11:24:26.635Z,13.30
2022-10-01T11:26:59.395Z,13.50
2022-10-01T11:29:40.039Z,13.70
2022-10-01T11:32:22.733Z,13.70
2022-10-01T11:35:01.238Z,13.90
2022-10-01T11:37:49.332Z,13.80
2022-10-01T11:40:25.059Z,13.90
2022-10-01T11:42:58.395Z,13.90
2022-10-01T11:45:32.129Z,14.10
2022-10-01T11:48:06.192Z,13.90
2022-10-01T11:50:39.466Z,13.80
2022-10-01T11:53:13.766Z,13.90
2022-10-01T11:56:03.608Z,14.00
2022-10-01T11:58:54.146Z,13.80
2022-10-01T12:01:30.856Z,13.90
2022-10-01T12:04:18.445Z,13.90
2022-10-01T12:06:55.464Z,14.00
2022-10-01T12:09:32.616Z,13.90
2022-10-01T12:12:06.864Z,14.00
2022-10-01T12:14:43.102Z,14.10
2022-10-01T12:17:20.144Z,14.30
2022-10-01T12:19:52.571Z,14.40
2022-10-01T12:22:30.136Z,14.80
2022-10-01T12:24:58.663Z,15.00
2022-10-01T12:27:45.069Z,15.10
2022-10-01T12:30:16.793Z,14.60
2022-10-01T12:33:02.648Z,14.30
2022-10-01T12:35:43.985Z,14.20
2022-10-01T12:38:25.498Z,14.20
2022-10-01T12:41:02.098Z,14.20
2022-10-01T12:43:58.479Z,14.30
2022-10-01T12:46:37.966Z,14.30
2022-10-01T12:49:14.723Z,14.50
2022-10-01T12:51:46.307Z,14.50
2022-10-01T12:54:45.817Z,14.50
2022-10-01T12:57:33.048Z,14.30
2022-10-01T13:00:10.131Z,14.10
2022-10-01T13:03:12.253Z,14.10
2022-10-01T13:05:49.444Z,14.10
2022-10-01T13:08:36.023Z,14.00
2022-10-01T13:11:12.260Z,13.80
2022-10-01T13:13:40.726Z,13.90
2022-10-01T13:16:15.536Z,13.80
2022-10-01T13:18:58.151Z,13.80
2022-10-01T13:21:36.051Z,13.70
2022-10-01T13:24:13.844Z,13.80
2022-10-01T13:26:48.403Z,13.60
2022-10-01T13:29:29.918Z,13.50
2022-10-01T13:32:00.318Z,13.60
2022-10-01T13:34:38.099Z,13.70
2022-10-01T13:37:14.433Z,13.70
2022-10-01T13:39:44.360Z,13.70
2022-10-01T13:42:27.209Z,13.80
2022-10-01T13:44:58.319Z,13.80
2022-10-01T13:47:27.043Z,13.70
2022-10-01T13:49:57.755Z,13.80
2022-10-01T13:52:26.052Z,13.80
2022-10-01T13:54:57.241Z,13.80
2022-10-01T13:57:36.338Z,13.90
2022-10-01T14:00:22.804Z,13.90
2022-10-01T14:03:06.411Z,13.90
2022-10-01T14:05:39.029Z,13.80
2022-10-01T14:08:26.179Z,13.90
2022-10-01T14:11:16.702Z,13.70
2022-10-01T14:14:05.805Z,13.70
2022-10-01T14:16:38.577Z,13.60
2022-10-01T14:19:06.987Z,13.50
2022-10-01T14:21:47.114Z,13.50
2022-10-01T14:24:23.701Z,13.40
2022-10-01T14:26:56.999Z,13.50
2022-10-01T14:29:41.161Z,13.40
2022-10-01T14:32:23.081Z,13.40
2022-10-01T14:35:08.629Z,13.40
2022-10-01T14:37:40.025Z,13.30
2022-10-01T14:40:18.043Z,13.30
2022-10-01T14:42:58.147Z,13.20
2022-10-01T14:45:26.583Z,13.20
2022-10-01T14:48:05.023Z,13.10
2022-10-01T14:50:35.651Z,13.00
2022-10-01T14:53:04.006Z,13.00
2022-10-01T14:55:32.776Z,12.90
2022-10-01T14:58:02.631Z,12.90
2022-10-01T15:00:32.294Z,12.90
2022-10-01T15:03:10.150Z,12.90
2022-10-01T15:05:38.717Z,12.90
2022-10-01T15:08:13.453Z,12.90
2022-10-01T15:10:46.015Z,12.80
2022-10-01T15:13:24.887Z,12.80
2022-10-01T15:15:54.140Z,12.80
2022-10-01T15:18:23.364Z,12.70
2022-10-01T15:20:57.614Z,12.70
2022-10-01T15:23:28.854Z,12.60
2022-10-01T15:25:59.542Z,12.70
2022-10-01T15:28:31.921Z,12.60
2022-10-01T15:31:01.642Z,12.50
2022-10-01T15:33:30.933Z,12.50
2022-10-01T15:36:00.955Z,12.40
2022-10-01T15:38:31.363Z,12.40
2022-10-01T15:41:26.842Z,12.30
2022-10-01T15:43:52.333Z,12.30
2022-10-01T15:46:31.497Z,12.30
2022-10-01T15:49:16.852Z,12.20
2022-10-01T15:52:06.459Z,12.20
2022-10-01T15:54:35.575Z,12.10
2022-10-01T15:57:04.939Z,12.00
2022-10-01T15:59:35.406Z,12.10
2022-10-01T16:02:09.725Z,12.00
2022-10-01T16:04:38.054Z,12.00
2022-10-01T16:07:06.149Z,12.00
2022-10-01T16:09:34.353Z,11.90
2022-10-01T16:12:06.861Z,11.90
2022-10-01T16:14:42.239Z,11.90
2022-10-01T16:17:33.509Z,11.70
2022-10-01T16:20:23.338Z,11.70
2022-10-01T16:22:51.514Z,11.70
2022-10-01T16:25:33.180Z,11.70
2022-10-01T16:28:03.954Z,11.70
2022-10-01T16:30:35.705Z,11.60
2022-10-01T16:33:06.218Z,11.70
2022-10-01T16:35:36.150Z,11.60
2022-10-01T16:38:06.846Z,11.60
2022-10-01T16:40:40.104Z,11.60
2022-10-01T16:43:09.256Z,11.60
2022-10-01T16:45:40.499Z,11.60
2022-10-01T16:48:15.675Z,11.50
2022-10-01T16:50:46.198Z,11.50
2022-10-01T16:53:16.595Z,11.50
2022-10-01T16:55:45.536Z,11.50
2022-10-01T16:58:13.870Z,11.40
2022-10-01T17:00:43.780Z,11.40
2022-10-01T17:03:17.405Z,11.40
2022-10-01T17:05:46.211Z,11.40
2022-10-01T17:08:15.260Z,11.40
2022-10-01T17:10:46.219Z,11.30
2022-10-01T17:13:15.599Z,11.30
2022-10-01T17:15:47.497Z,11.30
2022-10-01T17:18:15.679Z,11.30
2022-10-01T17:20:43.916Z,11.20
2022-10-01T17:23:13.196Z,11.30
2022-10-01T17:25:42.481Z,11.30
2022-10-01T17:28:13.834Z,11.20
2022-10-01T17:30:42.955Z,11.20
2022-10-01T17:33:13.822Z,11.20
2022-10-01T17:35:43.969Z,11.20
2022-10-01T17:38:13.440Z,11.20
2022-10-01T17:40:42.467Z,11.30
2022-10-01T17:43:12.651Z,11.10
2022-10-01T17:45:40.849Z,11.10
2022-10-01T17:48:09.871Z,11.10
2022-10-01T17:50:44.848Z,11.10
2022-10-01T17:53:14.743Z,11.10
2022-10-01T17:55:44.672Z,11.10
2022-10-01T17:58:12.870Z,11.10
2022-10-01T18:00:42.173Z,11.10
2022-10-01T18:03:10.526Z,11.10
2022-10-01T18:05:41.710Z,11.00
2022-10-01T18:08:09.791Z,11.00
2022-10-01T18:10:37.981Z,11.00
2022-10-01T18:13:06.028Z,10.90
2022-10-01T18:15:34.245Z,10.90
2022-10-01T18:19:43.193Z,10.90
2022-10-01T18:20:51.984Z,10.80
2022-10-01T18:23:21.127Z,10.80
2022-10-01T18:25:49.252Z,10.70
2022-10-01T18:28:17.408Z,10.70
2022-10-01T18:30:45.542Z,10.70
2022-10-01T18:33:14.210Z,10.70
2022-10-01T18:35:44.540Z,10.60
2022-10-01T18:38:21.912Z,10.50
2022-10-01T18:40:57.951Z,10.40
2022-10-01T18:43:27.125Z,10.40
2022-10-01T18:46:09.249Z,10.40
2022-10-01T18:48:54.833Z,10.30
2022-10-01T18:51:31.383Z,10.30
2022-10-01T18:54:22.290Z,10.20
2022-10-01T18:56:57.712Z,10.20
2022-10-01T18:59:50.615Z,10.10
2022-10-01T19:02:40.036Z,10.10
2022-10-01T19:05:42.401Z,10.10
2022-10-01T19:08:23.606Z,10.00
2022-10-01T19:11:00.093Z,10.00
2022-10-01T19:13:35.903Z,9.90
2022-10-01T19:16:13.934Z,9.90
2022-10-01T19:18:55.160Z,9.90
2022-10-01T19:21:33.615Z,9.90
2022-10-01T19:24:20.487Z,9.90
2022-10-01T19:26:59.048Z,9.80
2022-10-01T19:29:39.905Z,9.80
2022-10-01T19:32:13.751Z,9.80
2022-10-01T19:34:47.401Z,9.80
2022-10-01T19:37:21.612Z,9.80
2022-10-01T19:39:52.892Z,9.80
2022-10-01T19:42:27.617Z,9.80
2022-10-01T19:45:01.539Z,9.80
2022-10-01T19:47:40.293Z,9.80
2022-10-01T19:50:19.535Z,9.80
2022-10-01T19:52:51.560Z,9.80
2022-10-01T19:55:22.858Z,9.80
2022-10-01T19:57:53.154Z,9.90
2022-10-01T20:00:23.982Z,9.80
2022-10-01T20:02:59.955Z,9.80
2022-10-01T20:05:30.611Z,9.80
2022-10-01T20:08:07.196Z,9.80
2022-10-01T20:10:42.635Z,9.80
2022-10-01T20:13:28.827Z,9.80
2022-10-01T20:16:06.074Z,9.90
2022-10-01T20:18:41.392Z,9.90
2022-10-01T20:21:29.780Z,10.00
2022-10-01T20:24:07.519Z,9.90
2022-10-01T20:26:42.872Z,9.90
2022-10-01T20:29:32.420Z,10.00
2022-10-01T20:32:06.835Z,10.00
2022-10-01T20:34:42.848Z,10.00
2022-10-01T20:37:23.106Z,10.00
2022-10-01T20:39:56.740Z,10.00
2022-10-01T20:42:33.779Z,10.10
2022-10-01T20:45:05.640Z,10.10
2022-10-01T20:47:40.370Z,10.10
2022-10-01T20:50:15.760Z,10.10
2022-10-01T20:52:52.845Z,10.10
2022-10-01T20:55:26.718Z,10.10
2022-10-01T20:58:01.195Z,10.20
2022-10-01T21:00:31.237Z,10.20
2022-10-01T21:03:11.038Z,10.20
2022-10-01T21:05:43.021Z,10.20
2022-10-01T21:08:23.781Z,10.20
2022-10-01T21:10:55.952Z,10.20
2022-10-01T21:13:39.438Z,10.20
2022-10-01T21:16:23.684Z,10.30
2022-10-01T21:18:58.894Z,10.20
2022-10-01T21:21:33.800Z,10.30
2022-10-01T21:24:18.068Z,10.30
2022-10-01T21:26:56.695Z,10.30
2022-10-01T21:29:45.676Z,10.30
2022-10-01T21:32:29.180Z,10.40
2022-10-01T21:35:07.946Z,10.40
2022-10-01T21:37:42.990Z,10.40
2022-10-01T21:40:25.063Z,10.40
2022-10-01T21:43:02.966Z,10.50
2022-10-01T21:45:43.243Z,10.50
2022-10-01T21:48:35.938Z,10.60
2022-10-01T21:51:11.086Z,10.70
2022-10-01T21:54:09.219Z,10.60
2022-10-01T21:57:07.400Z,10.60
2022-10-01T21:59:52.983Z,10.60
2022-10-01T22:02:36.880Z,10.60
2022-10-01T22:05:19.087Z,10.70
2022-10-01T22:07:54.165Z,10.70
2022-10-01T22:10:28.368Z,10.70
2022-10-01T22:13:01.366Z,10.60
2022-10-01T22:15:33.414Z,10.80
2022-10-01T22:18:05.427Z,10.70
2022-10-01T22:20:42.376Z,10.70
2022-10-01T22:23:18.515Z,10.70
2022-10-01T22:25:57.704Z,10.60
2022-10-01T22:28:34.389Z,10.90
2022-10-01T22:31:10.363Z,10.60
2022-10-01T22:33:44.950Z,10.60
2022-10-01T22:36:20.873Z,10.60
2022-10-01T22:38:53.905Z,10.60
2022-10-01T22:41:26.951Z,10.60
2022-10-01T22:43:55.589Z,10.50
2022-10-01T22:46:53.825Z,10.70
2022-10-01T22:49:36.186Z,10.60
2022-10-01T22:52:19.273Z,10.60
2022-10-01T22:55:01.520Z,10.70
2022-10-01T22:57:43.236Z,10.50
2022-10-01T23:00:14.091Z,10.50
2022-10-01T23:02:46.361Z,10.50
2022-10-01T23:05:42.028Z,10.50
2022-10-01T23:08:23.061Z,10.60
2022-10-01T23:11:01.636Z,10.50
